Gonder Airport


Codes: HAGN/GDQ
Name: Gonder Airport
City: Gondar
Country: Ethiopia
Elevation: 6449 ft.
Wikipedia:

Photos at Gonder Airport


   Photos courtesy of SpottingLog. You can add your own sightings and photos by signing up for a free trial today.



No photos found.

Weather at Gonder Airport


Time (UTC)DescriptionTempratureWindCloud coverageVisibilityPressureHumidity
26-Jun-2024 00:00Light Rain17°C4 mph, S100%10000m1013hPa83%
26-Jun-2024 03:00Light Rain17°C2 mph, E100%10000m1013hPa82%
26-Jun-2024 06:00Overcast Clouds19°C2 mph, S100%10000m1014hPa69%
26-Jun-2024 09:00Light Rain24°C4 mph, S100%10000m1012hPa52%
26-Jun-2024 12:00Light Rain23°C11 mph, NW99%10000m1010hPa57%
26-Jun-2024 15:00Light Rain21°C11 mph, N100%10000m1011hPa63%
26-Jun-2024 18:00Light Rain18°C7 mph, N100%10000m1014hPa76%
26-Jun-2024 21:00Light Rain17°C7 mph, NW100%10000m1015hPa85%
27-Jun-2024 00:00Light Rain16°C4 mph, N100%10000m1014hPa88%
27-Jun-2024 03:00Light Rain17°C0 mph, N100%10000m1014hPa79%
27-Jun-2024 06:00Light Rain20°C2 mph, SW100%10000m1015hPa65%
27-Jun-2024 09:00Light Rain24°C2 mph, W100%10000m1012hPa49%
27-Jun-2024 12:00Light Rain23°C11 mph, W99%10000m1011hPa54%
27-Jun-2024 15:00Light Rain20°C9 mph, N86%7108m1012hPa75%
27-Jun-2024 18:00Moderate Rain18°C7 mph, NW93%6721m1016hPa83%
27-Jun-2024 21:00Moderate Rain16°C7 mph, NW100%10000m1017hPa88%
28-Jun-2024 00:00Light Rain16°C2 mph, E100%10000m1015hPa85%
28-Jun-2024 03:00Light Rain15°C2 mph, E100%10000m1016hPa91%
28-Jun-2024 06:00Light Rain20°C4 mph, S94%10000m1015hPa70%
28-Jun-2024 09:00Light Rain25°C4 mph, W72%10000m1012hPa47%
28-Jun-2024 12:00Light Rain22°C11 mph, NW81%10000m1011hPa61%
28-Jun-2024 15:00Moderate Rain19°C9 mph, N100%6005m1012hPa79%
28-Jun-2024 18:00Moderate Rain17°C13 mph, N100%9552m1016hPa84%
28-Jun-2024 21:00Light Rain17°C4 mph, N100%10000m1016hPa83%
29-Jun-2024 00:00Overcast Clouds17°C4 mph, NE100%10000m1015hPa80%
29-Jun-2024 03:00Overcast Clouds16°C2 mph, SE93%10000m1015hPa79%
29-Jun-2024 06:00Broken Clouds20°C4 mph, S61%10000m1016hPa67%
29-Jun-2024 09:00Light Rain24°C7 mph, NW57%10000m1013hPa48%
29-Jun-2024 12:00Light Rain22°C11 mph, NW72%10000m1012hPa61%
29-Jun-2024 15:00Light Rain20°C11 mph, NW98%10000m1012hPa77%
29-Jun-2024 18:00Moderate Rain19°C4 mph, NE88%9100m1015hPa79%
29-Jun-2024 21:00Light Rain16°C11 mph, N91%10000m1017hPa89%
30-Jun-2024 00:00Light Rain15°C7 mph, N93%10000m1015hPa84%
30-Jun-2024 03:00Overcast Clouds16°C2 mph, NE100%10000m1016hPa78%
30-Jun-2024 06:00Overcast Clouds20°C4 mph, SE100%10000m1016hPa66%
30-Jun-2024 09:00Light Rain24°C4 mph, SW100%10000m1013hPa51%
30-Jun-2024 12:00Light Rain22°C9 mph, NW100%10000m1012hPa58%
30-Jun-2024 15:00Light Rain20°C11 mph, NW100%10000m1013hPa75%
30-Jun-2024 18:00Light Rain17°C11 mph, N70%10000m1016hPa86%
30-Jun-2024 21:00Light Rain16°C7 mph, N100%10000m1016hPa86%